createdAt,value
2022-10-13T00:00:24.803Z,0.00
2022-10-13T00:05:24.722Z,0.00
2022-10-13T00:10:24.668Z,0.00
2022-10-13T00:15:24.588Z,0.00
2022-10-13T00:20:24.520Z,0.00
2022-10-13T00:25:24.445Z,0.00
2022-10-13T00:30:24.381Z,0.00
2022-10-13T00:35:24.337Z,0.00
2022-10-13T00:40:24.285Z,0.00
2022-10-13T00:45:24.243Z,0.00
2022-10-13T00:50:24.195Z,0.00
2022-10-13T00:55:24.065Z,0.00
2022-10-13T01:00:23.989Z,0.00
2022-10-13T01:05:23.935Z,0.00
2022-10-13T01:10:23.887Z,0.00
2022-10-13T01:15:23.797Z,0.00
2022-10-13T01:20:23.761Z,0.00
2022-10-13T01:25:23.702Z,0.00
2022-10-13T01:30:23.597Z,0.00
2022-10-13T01:35:23.635Z,0.00
2022-10-13T01:40:23.459Z,0.00
2022-10-13T01:45:23.410Z,0.00
2022-10-13T01:50:23.377Z,0.00
2022-10-13T01:55:23.289Z,0.00
2022-10-13T02:00:23.289Z,0.00
2022-10-13T02:05:23.129Z,0.00
2022-10-13T02:10:23.276Z,0.00
2022-10-13T02:15:23.047Z,0.00
2022-10-13T02:20:22.975Z,0.00
2022-10-13T02:25:22.930Z,0.00
2022-10-13T02:30:22.820Z,0.00
2022-10-13T02:35:22.769Z,0.00
2022-10-13T02:40:22.704Z,0.00
2022-10-13T02:45:22.609Z,0.00
2022-10-13T02:50:22.579Z,0.00
2022-10-13T02:55:22.498Z,0.00
2022-10-13T03:00:22.427Z,0.00
2022-10-13T03:05:22.373Z,0.00
2022-10-13T03:10:22.326Z,0.00
2022-10-13T03:15:22.439Z,0.00
2022-10-13T03:20:22.183Z,0.00
2022-10-13T03:25:22.102Z,0.00
2022-10-13T03:30:22.052Z,0.00
2022-10-13T03:35:21.990Z,0.00
2022-10-13T03:40:21.916Z,0.00
2022-10-13T03:45:21.880Z,0.00
2022-10-13T03:50:21.782Z,0.00
2022-10-13T03:55:22.179Z,0.00
2022-10-13T04:00:21.660Z,0.00
2022-10-13T04:05:21.567Z,0.00
2022-10-13T04:10:21.506Z,0.00
2022-10-13T04:15:21.481Z,0.00
2022-10-13T04:20:21.418Z,0.00
2022-10-13T04:25:21.296Z,0.00
2022-10-13T04:30:21.275Z,0.00
2022-10-13T04:35:21.168Z,0.00
2022-10-13T04:40:21.144Z,0.00
2022-10-13T04:45:21.043Z,0.00
2022-10-13T04:50:21.001Z,4.00
2022-10-13T04:55:20.933Z,4.00
2022-10-13T05:00:20.854Z,8.00
2022-10-13T05:05:20.867Z,24.00
2022-10-13T05:10:20.706Z,56.00
2022-10-13T05:15:20.664Z,112.00
2022-10-13T05:20:20.764Z,204.00
2022-10-13T05:25:20.669Z,300.00
2022-10-13T05:30:20.481Z,456.00
2022-10-13T05:35:20.416Z,676.00
2022-10-13T05:40:20.341Z,1124.00
2022-10-13T05:45:20.273Z,1840.00
2022-10-13T05:50:20.215Z,2608.00
2022-10-13T05:55:20.130Z,2968.00
2022-10-13T06:00:20.080Z,3372.00
2022-10-13T06:05:19.981Z,5008.00
2022-10-13T06:10:20.015Z,6028.00
2022-10-13T06:15:22.327Z,16096.00
2022-10-13T06:20:19.796Z,6476.00
2022-10-13T06:25:19.704Z,3960.00
2022-10-13T06:30:19.852Z,3616.00
2022-10-13T06:35:19.605Z,3428.00
2022-10-13T06:40:19.632Z,3616.00
2022-10-13T06:45:19.443Z,4396.00
2022-10-13T06:50:19.405Z,8760.00
2022-10-13T06:55:19.397Z,36544.00
2022-10-13T07:00:26.374Z,36032.00
2022-10-13T07:05:19.180Z,44896.00
2022-10-13T07:10:19.103Z,35808.00
2022-10-13T07:15:19.052Z,14992.00
2022-10-13T07:20:19.156Z,49824.00
2022-10-13T07:25:18.936Z,46080.00
2022-10-13T07:30:18.899Z,20224.00
2022-10-13T07:35:18.795Z,22432.00
2022-10-13T07:40:18.713Z,11200.00
2022-10-13T07:45:18.683Z,14984.00
2022-10-13T07:50:18.570Z,54016.00
2022-10-13T07:55:18.504Z,57568.00
2022-10-13T08:00:18.465Z,33632.00
2022-10-13T08:05:18.365Z,32032.00
2022-10-13T08:10:18.308Z,19744.00
2022-10-13T08:15:18.246Z,18368.00
2022-10-13T08:20:18.157Z,17344.00
2022-10-13T08:25:18.098Z,18592.00
2022-10-13T08:30:18.137Z,17632.00
2022-10-13T08:35:17.990Z,14692.00
2022-10-13T08:40:18.165Z,13156.00
2022-10-13T08:50:18.821Z,11952.00
2022-10-13T08:55:17.740Z,11436.00
2022-10-13T09:00:17.651Z,10896.00
2022-10-13T09:05:17.594Z,10452.00
2022-10-13T09:10:17.532Z,9992.00
2022-10-13T09:15:17.456Z,9408.00
2022-10-13T09:20:17.408Z,8640.00
2022-10-13T09:25:17.304Z,8400.00
2022-10-13T09:30:17.234Z,8740.00
2022-10-13T09:35:17.179Z,8612.00
2022-10-13T09:40:17.117Z,8456.00
2022-10-13T09:45:17.276Z,8212.00
2022-10-13T09:50:16.990Z,8176.00
2022-10-13T09:55:16.928Z,8060.00
2022-10-13T10:00:16.834Z,7620.00
2022-10-13T10:05:16.782Z,7636.00
2022-10-13T10:10:16.739Z,5948.00
2022-10-13T10:15:16.634Z,8256.00
2022-10-13T10:20:16.596Z,8224.00
2022-10-13T10:25:16.547Z,8532.00
2022-10-13T10:30:16.421Z,9416.00
2022-10-13T10:35:16.360Z,9708.00
2022-10-13T10:40:16.328Z,9724.00
2022-10-13T10:45:16.261Z,8488.00
2022-10-13T10:50:16.182Z,8120.00
2022-10-13T10:55:16.173Z,8188.00
2022-10-13T11:00:16.079Z,7944.00
2022-10-13T11:05:16.014Z,7652.00
2022-10-13T11:10:15.905Z,7124.00
2022-10-13T11:15:15.858Z,7176.00
2022-10-13T11:20:15.766Z,7552.00
2022-10-13T11:25:15.714Z,7464.00
2022-10-13T11:30:15.646Z,7764.00
2022-10-13T11:35:15.590Z,6880.00
2022-10-13T11:40:15.507Z,6836.00
2022-10-13T11:45:15.445Z,6468.00
2022-10-13T11:50:15.392Z,6800.00
2022-10-13T11:55:15.327Z,6684.00
2022-10-13T12:00:15.238Z,7360.00
2022-10-13T12:05:15.169Z,7740.00
2022-10-13T12:10:15.143Z,7800.00
2022-10-13T12:15:15.125Z,7072.00
2022-10-13T12:20:14.968Z,7048.00
2022-10-13T12:25:14.943Z,7008.00
2022-10-13T12:30:14.832Z,6900.00
2022-10-13T12:35:14.814Z,6532.00
2022-10-13T12:40:14.731Z,6532.00
2022-10-13T12:45:14.633Z,6560.00
2022-10-13T12:50:14.635Z,6224.00
2022-10-13T12:55:14.523Z,5704.00
2022-10-13T13:00:14.614Z,5988.00
2022-10-13T13:05:14.376Z,5816.00
2022-10-13T13:10:14.328Z,5432.00
2022-10-13T13:15:14.255Z,5308.00
2022-10-13T13:20:14.198Z,4452.00
2022-10-13T13:25:14.135Z,3040.00
2022-10-13T13:30:14.050Z,2664.00
2022-10-13T13:35:14.114Z,4080.00
2022-10-13T13:40:13.898Z,4872.00
2022-10-13T13:45:13.839Z,5032.00
2022-10-13T13:50:13.773Z,5052.00
2022-10-13T13:55:13.701Z,5288.00
2022-10-13T14:00:13.638Z,5408.00
2022-10-13T14:05:13.702Z,5296.00
2022-10-13T14:10:13.518Z,5280.00
2022-10-13T14:15:13.492Z,5284.00
2022-10-13T14:20:13.376Z,5284.00
2022-10-13T14:25:13.352Z,5008.00
2022-10-13T14:30:13.232Z,4420.00
2022-10-13T14:35:13.186Z,3756.00
2022-10-13T14:40:21.593Z,3100.00
2022-10-13T14:45:13.026Z,2572.00
2022-10-13T14:50:12.975Z,2004.00
2022-10-13T14:55:12.914Z,1752.00
2022-10-13T15:00:12.840Z,1564.00
2022-10-13T15:05:12.766Z,1496.00
2022-10-13T15:10:12.866Z,1364.00
2022-10-13T15:15:12.627Z,1312.00
2022-10-13T15:20:12.548Z,1360.00
2022-10-13T15:25:12.487Z,1308.00
2022-10-13T15:30:12.428Z,1272.00
2022-10-13T15:35:12.357Z,1176.00
2022-10-13T15:40:12.308Z,972.00
2022-10-13T15:45:12.295Z,752.00
2022-10-13T15:50:12.161Z,580.00
2022-10-13T15:55:12.114Z,432.00
2022-10-13T16:00:12.030Z,300.00
2022-10-13T16:05:11.987Z,204.00
2022-10-13T16:10:11.901Z,140.00
2022-10-13T16:15:12.061Z,88.00
2022-10-13T16:20:11.795Z,60.00
2022-10-13T16:25:12.044Z,32.00
2022-10-13T16:30:11.653Z,16.00
2022-10-13T16:35:11.558Z,8.00
2022-10-13T16:40:11.507Z,4.00
2022-10-13T16:45:11.502Z,4.00
2022-10-13T16:50:11.406Z,0.00
2022-10-13T16:55:11.456Z,0.00
2022-10-13T17:00:11.243Z,0.00
2022-10-13T17:05:11.167Z,0.00
2022-10-13T17:10:11.169Z,0.00
2022-10-13T17:15:11.106Z,0.00
2022-10-13T17:20:11.274Z,0.00
2022-10-13T17:25:11.092Z,0.00
2022-10-13T17:30:10.887Z,0.00
2022-10-13T17:35:11.004Z,0.00
2022-10-13T17:40:10.686Z,0.00
2022-10-13T17:45:10.647Z,0.00
2022-10-13T17:50:10.575Z,0.00
2022-10-13T17:55:10.625Z,0.00
2022-10-13T18:00:10.720Z,0.00
2022-10-13T18:05:10.367Z,0.00
2022-10-13T18:10:10.320Z,0.00
2022-10-13T18:15:10.244Z,0.00
2022-10-13T18:20:10.257Z,0.00
2022-10-13T18:25:10.336Z,0.00
2022-10-13T18:30:10.098Z,0.00
2022-10-13T18:35:10.036Z,0.00
2022-10-13T18:40:09.934Z,0.00
2022-10-13T18:45:09.899Z,0.00
2022-10-13T18:50:09.826Z,0.00
2022-10-13T18:55:09.702Z,0.00
2022-10-13T19:00:09.683Z,0.00
2022-10-13T19:05:09.625Z,0.00
2022-10-13T19:10:09.508Z,0.00
2022-10-13T19:15:09.618Z,0.00
2022-10-13T19:20:09.502Z,0.00
2022-10-13T19:25:09.408Z,0.00
2022-10-13T19:30:09.480Z,0.00
2022-10-13T19:35:09.203Z,0.00
2022-10-13T19:40:09.149Z,0.00
2022-10-13T19:45:09.131Z,0.00
2022-10-13T19:50:08.989Z,0.00
2022-10-13T19:55:08.896Z,0.00
2022-10-13T20:00:08.882Z,0.00
2022-10-13T20:05:08.770Z,0.00
2022-10-13T20:10:16.894Z,0.00
2022-10-13T20:15:08.632Z,0.00
2022-10-13T20:20:08.553Z,0.00
2022-10-13T20:25:08.502Z,0.00
2022-10-13T20:30:08.410Z,0.00
2022-10-13T20:35:08.541Z,0.00
2022-10-13T20:40:08.291Z,0.00
2022-10-13T20:45:08.238Z,0.00
2022-10-13T20:50:08.168Z,0.00
2022-10-13T20:55:08.110Z,0.00
2022-10-13T21:00:08.101Z,0.00
2022-10-13T21:05:08.003Z,0.00
2022-10-13T21:10:07.939Z,0.00
2022-10-13T21:15:08.242Z,0.00
2022-10-13T21:20:08.247Z,0.00
2022-10-13T21:25:07.793Z,0.00
2022-10-13T21:30:07.642Z,0.00
2022-10-13T21:35:07.612Z,0.00
2022-10-13T21:40:07.582Z,0.00
2022-10-13T21:45:07.479Z,0.00
2022-10-13T21:50:07.371Z,0.00
2022-10-13T21:55:07.315Z,0.00
2022-10-13T22:00:07.223Z,0.00
2022-10-13T22:05:07.161Z,0.00
2022-10-13T22:10:07.100Z,0.00
2022-10-13T22:15:07.034Z,0.00
2022-10-13T22:20:06.972Z,0.00
2022-10-13T22:25:07.142Z,0.00
2022-10-13T22:30:06.837Z,0.00
2022-10-13T22:35:06.771Z,0.00
2022-10-13T22:40:06.722Z,0.00
2022-10-13T22:45:06.832Z,0.00
2022-10-13T22:50:06.566Z,0.00
2022-10-13T22:55:06.522Z,0.00
2022-10-13T23:00:06.713Z,0.00
2022-10-13T23:05:06.399Z,0.00
2022-10-13T23:10:06.346Z,0.00
2022-10-13T23:15:06.297Z,0.00
2022-10-13T23:20:06.175Z,0.00
2022-10-13T23:25:06.124Z,0.00
2022-10-13T23:30:06.035Z,0.00
2022-10-13T23:35:05.961Z,0.00
2022-10-13T23:40:05.902Z,0.00
2022-10-13T23:45:05.836Z,0.00
2022-10-13T23:50:05.963Z,0.00
2022-10-13T23:55:05.745Z,0.00
